createdAt,value
2023-04-13T00:01:11.144Z,0.30
2023-04-13T00:03:37.868Z,0.40
2023-04-13T00:06:05.018Z,0.38
2023-04-13T00:08:31.611Z,0.20
2023-04-13T00:10:58.000Z,0.30
2023-04-13T00:13:24.791Z,0.30
2023-04-13T00:15:51.371Z,0.10
2023-04-13T00:18:17.806Z,0.32
2023-04-13T00:20:44.223Z,0.30
2023-04-13T00:23:10.940Z,0.63
2023-04-13T00:25:37.253Z,0.50
2023-04-13T00:28:06.140Z,0.60
2023-04-13T00:30:32.964Z,0.47
2023-04-13T00:32:59.579Z,0.30
2023-04-13T00:35:26.465Z,0.20
2023-04-13T00:37:53.305Z,0.40
2023-04-13T00:40:20.019Z,0.50
2023-04-13T00:42:48.002Z,0.15
2023-04-13T00:45:15.789Z,0.80
2023-04-13T00:47:43.359Z,0.50
2023-04-13T00:50:10.089Z,0.40
2023-04-13T00:52:40.252Z,0.40
2023-04-13T00:55:07.741Z,0.40
2023-04-13T00:57:35.134Z,0.50
2023-04-13T01:00:06.668Z,0.30
2023-04-13T01:02:34.153Z,0.50
2023-04-13T01:05:00.887Z,0.55
2023-04-13T01:07:29.916Z,0.65
2023-04-13T01:10:07.351Z,0.47
2023-04-13T01:12:51.456Z,0.40
2023-04-13T01:15:18.813Z,0.28
2023-04-13T01:17:53.859Z,0.30
2023-04-13T01:20:20.617Z,0.32
2023-04-13T01:22:57.574Z,0.60
2023-04-13T01:25:30.841Z,0.40
2023-04-13T01:28:02.211Z,0.60
2023-04-13T01:30:31.510Z,0.32
2023-04-13T01:32:59.692Z,0.40
2023-04-13T01:35:26.747Z,0.45
2023-04-13T01:37:53.481Z,0.30
2023-04-13T01:40:26.000Z,0.77
2023-04-13T01:42:52.480Z,0.30
2023-04-13T01:45:30.085Z,0.30
2023-04-13T01:48:38.844Z,0.30
2023-04-13T01:51:10.339Z,0.17
2023-04-13T01:53:46.567Z,0.30
2023-04-13T01:56:16.866Z,0.52
2023-04-13T01:58:49.658Z,0.80
2023-04-13T02:01:17.837Z,0.25
2023-04-13T02:03:45.354Z,0.40
2023-04-13T02:06:11.984Z,0.25
2023-04-13T02:08:39.074Z,0.20
2023-04-13T02:11:05.909Z,0.40
2023-04-13T02:13:32.494Z,0.80
2023-04-13T02:15:59.145Z,0.20
2023-04-13T02:18:25.644Z,0.50
2023-04-13T02:21:07.909Z,0.35
2023-04-13T02:23:35.369Z,0.30
2023-04-13T02:26:02.559Z,0.35
2023-04-13T02:28:29.950Z,0.60
2023-04-13T02:30:56.996Z,0.28
2023-04-13T02:33:23.371Z,0.30
2023-04-13T02:35:50.769Z,0.20
2023-04-13T02:38:17.173Z,0.13
2023-04-13T02:40:43.808Z,0.43
2023-04-13T02:43:10.254Z,0.15
2023-04-13T02:45:37.147Z,0.20
2023-04-13T02:48:04.795Z,0.13
2023-04-13T02:50:31.273Z,0.17
2023-04-13T02:52:57.727Z,0.43
2023-04-13T02:55:24.088Z,0.30
2023-04-13T02:57:50.464Z,0.20
2023-04-13T03:00:17.171Z,0.20
2023-04-13T03:02:44.618Z,0.68
2023-04-13T03:05:11.032Z,0.63
2023-04-13T03:07:37.580Z,0.30
2023-04-13T03:10:05.485Z,0.50
2023-04-13T03:12:32.712Z,0.68
2023-04-13T03:15:03.190Z,0.50
2023-04-13T03:17:32.438Z,0.75
2023-04-13T03:19:59.702Z,0.80
2023-04-13T03:22:30.089Z,0.52
2023-04-13T03:24:56.662Z,0.82
2023-04-13T03:27:23.128Z,0.55
2023-04-13T03:29:49.493Z,0.70
2023-04-13T03:32:16.073Z,0.50
2023-04-13T03:34:44.225Z,0.93
2023-04-13T03:37:11.714Z,0.70
2023-04-13T03:39:39.115Z,1.08
2023-04-13T03:42:05.843Z,0.75
2023-04-13T03:44:32.828Z,0.50
2023-04-13T03:46:59.230Z,1.00
2023-04-13T03:49:25.769Z,1.48
2023-04-13T03:51:52.296Z,1.10
2023-04-13T03:54:19.023Z,0.73
2023-04-13T03:56:45.507Z,0.77
2023-04-13T03:59:11.849Z,0.68
2023-04-13T04:01:38.232Z,0.70
2023-04-13T04:04:04.941Z,1.55
2023-04-13T04:06:31.622Z,0.75
2023-04-13T04:08:57.992Z,0.90
2023-04-13T04:11:24.375Z,0.50
2023-04-13T04:13:50.866Z,1.00
2023-04-13T04:16:17.310Z,1.13
2023-04-13T04:18:44.013Z,0.50
2023-04-13T04:21:12.982Z,0.90
2023-04-13T04:23:39.913Z,0.85
2023-04-13T04:26:07.354Z,1.02
2023-04-13T04:28:38.979Z,1.10
2023-04-13T04:31:11.751Z,0.80
2023-04-13T04:33:41.062Z,0.77
2023-04-13T04:36:09.994Z,1.30
2023-04-13T04:38:36.540Z,0.60
2023-04-13T04:41:02.945Z,0.60
2023-04-13T04:43:30.314Z,0.85
2023-04-13T04:45:57.973Z,0.82
2023-04-13T04:48:26.897Z,1.13
2023-04-13T04:50:55.853Z,0.70
2023-04-13T04:53:22.780Z,0.80
2023-04-13T04:55:49.678Z,0.98
2023-04-13T04:58:16.648Z,1.35
2023-04-13T05:00:43.020Z,1.50
2023-04-13T05:03:09.650Z,1.83
2023-04-13T05:05:36.121Z,1.58
2023-04-13T05:08:03.034Z,1.55
2023-04-13T05:10:29.946Z,1.65
2023-04-13T05:12:56.742Z,1.92
2023-04-13T05:15:23.311Z,1.92
2023-04-13T05:17:50.897Z,2.00
2023-04-13T05:20:17.836Z,1.83
2023-04-13T05:22:44.252Z,2.30
2023-04-13T05:25:11.079Z,2.47
2023-04-13T05:27:37.957Z,1.23
2023-04-13T05:30:05.721Z,1.95
2023-04-13T05:32:35.046Z,2.35
2023-04-13T05:35:01.794Z,1.95
2023-04-13T05:37:28.292Z,2.05
2023-04-13T05:39:54.748Z,2.00
2023-04-13T05:42:21.168Z,1.90
2023-04-13T05:44:47.545Z,2.30
2023-04-13T05:47:13.912Z,2.25
2023-04-13T05:49:40.356Z,2.15
2023-04-13T05:52:08.007Z,2.10
2023-04-13T05:54:34.554Z,2.70
2023-04-13T05:57:00.896Z,1.98
2023-04-13T05:59:27.376Z,2.00
2023-04-13T06:01:54.108Z,1.95
2023-04-13T06:04:20.751Z,1.38
2023-04-13T06:06:47.336Z,1.65
2023-04-13T06:09:14.694Z,1.30
2023-04-13T06:11:41.683Z,1.77
2023-04-13T06:14:08.039Z,2.00
2023-04-13T06:16:34.438Z,1.10
2023-04-13T06:19:01.206Z,2.05
2023-04-13T06:21:30.047Z,2.03
2023-04-13T06:23:56.546Z,1.38
2023-04-13T06:26:23.020Z,1.75
2023-04-13T06:28:49.359Z,1.90
2023-04-13T06:31:16.444Z,2.33
2023-04-13T06:33:43.201Z,1.75
2023-04-13T06:36:09.971Z,2.10
2023-04-13T06:38:36.327Z,1.92
2023-04-13T06:41:03.620Z,2.03
2023-04-13T06:43:30.360Z,1.63
2023-04-13T06:46:01.616Z,2.45
2023-04-13T06:48:28.098Z,1.90
2023-04-13T06:50:59.193Z,1.77
2023-04-13T06:55:52.302Z,1.85
2023-04-13T06:58:18.682Z,2.60
2023-04-13T07:00:45.291Z,2.58
2023-04-13T07:03:11.852Z,2.53
2023-04-13T07:05:38.925Z,3.00
2023-04-13T07:08:06.317Z,3.00
2023-04-13T07:10:32.819Z,3.17
2023-04-13T07:12:59.190Z,2.30
2023-04-13T07:15:25.584Z,2.80
2023-04-13T07:17:52.427Z,1.48
2023-04-13T07:20:18.944Z,1.17
2023-04-13T07:22:45.276Z,1.98
2023-04-13T07:25:11.667Z,1.00
2023-04-13T07:27:38.075Z,1.45
2023-04-13T07:30:07.068Z,1.30
2023-04-13T07:32:33.578Z,1.70
2023-04-13T07:35:01.964Z,0.82
2023-04-13T07:37:29.557Z,2.00
2023-04-13T07:39:56.044Z,1.25
2023-04-13T07:42:22.434Z,1.50
2023-04-13T07:44:48.804Z,1.20
2023-04-13T07:47:15.202Z,2.30
2023-04-13T07:49:41.562Z,2.50
2023-04-13T07:52:07.885Z,2.22
2023-04-13T07:54:35.610Z,1.98
2023-04-13T07:57:02.857Z,2.05
2023-04-13T07:59:29.735Z,1.73
2023-04-13T08:01:56.407Z,2.35
2023-04-13T08:04:22.963Z,2.03
2023-04-13T08:06:49.460Z,3.00
2023-04-13T08:09:15.808Z,2.92
2023-04-13T08:11:42.516Z,2.53
2023-04-13T08:14:09.834Z,3.10
2023-04-13T08:16:36.423Z,2.85
2023-04-13T08:19:03.022Z,2.95
2023-04-13T08:21:29.982Z,2.80
2023-04-13T08:23:56.823Z,2.67
2023-04-13T08:26:24.296Z,2.70
2023-04-13T08:28:52.776Z,2.88
2023-04-13T08:31:19.321Z,1.83
2023-04-13T08:33:45.733Z,2.55
2023-04-13T08:36:12.127Z,2.40
2023-04-13T08:38:38.571Z,1.60
2023-04-13T08:41:07.158Z,1.55
2023-04-13T08:43:35.574Z,2.20
2023-04-13T08:46:04.428Z,3.33
2023-04-13T08:48:39.217Z,1.85
2023-04-13T08:51:18.043Z,2.20
2023-04-13T08:53:44.408Z,1.60
2023-04-13T08:56:14.604Z,2.08
2023-04-13T08:58:44.048Z,1.42
2023-04-13T09:01:14.497Z,1.50
2023-04-13T09:03:55.321Z,2.35
2023-04-13T09:06:26.197Z,1.30
2023-04-13T09:08:55.240Z,2.38
2023-04-13T09:11:22.104Z,1.23
2023-04-13T09:13:50.692Z,1.67
2023-04-13T09:16:18.235Z,1.30
2023-04-13T09:18:51.504Z,1.25
2023-04-13T09:21:18.096Z,1.33
2023-04-13T09:23:58.471Z,2.03
2023-04-13T09:26:25.990Z,1.20
2023-04-13T09:28:56.191Z,1.00
2023-04-13T09:31:23.174Z,1.03
2023-04-13T09:33:51.978Z,0.90
2023-04-13T09:36:20.767Z,1.67
2023-04-13T09:38:57.297Z,0.57
2023-04-13T09:41:40.516Z,0.70
2023-04-13T09:44:22.292Z,0.85
2023-04-13T09:46:59.938Z,0.40
2023-04-13T09:49:36.532Z,1.23
2023-04-13T09:52:03.271Z,0.73
2023-04-13T09:54:29.673Z,0.50
2023-04-13T09:56:57.679Z,1.17
2023-04-13T09:59:24.560Z,1.50
2023-04-13T10:01:51.874Z,1.67
2023-04-13T10:04:18.554Z,1.00
2023-04-13T10:06:46.404Z,0.80
2023-04-13T10:09:12.998Z,1.30
2023-04-13T10:11:49.945Z,1.67
2023-04-13T10:14:21.623Z,1.02
2023-04-13T10:17:07.439Z,1.50
2023-04-13T10:19:43.444Z,1.10
2023-04-13T10:22:11.404Z,0.93
2023-04-13T10:24:39.823Z,0.60
2023-04-13T10:27:18.519Z,0.98
2023-04-13T10:29:45.424Z,1.00
2023-04-13T10:32:23.644Z,0.73
2023-04-13T10:34:51.152Z,0.30
2023-04-13T10:37:21.644Z,0.52
2023-04-13T10:39:48.465Z,0.50
2023-04-13T10:42:17.685Z,0.80
2023-04-13T10:45:02.252Z,0.70
2023-04-13T10:47:36.919Z,0.63
2023-04-13T10:50:04.066Z,0.40
2023-04-13T10:52:31.533Z,0.73
2023-04-13T10:54:58.524Z,0.80
2023-04-13T10:57:24.920Z,0.85
2023-04-13T10:59:59.600Z,0.63
2023-04-13T11:02:32.162Z,0.43
2023-04-13T11:04:59.558Z,0.88
2023-04-13T11:07:26.587Z,0.70
2023-04-13T11:10:02.791Z,0.77
2023-04-13T11:12:29.693Z,0.45
2023-04-13T11:14:56.074Z,0.88
2023-04-13T11:17:22.993Z,1.00
2023-04-13T11:19:54.524Z,1.88
2023-04-13T11:25:06.301Z,0.57
2023-04-13T11:27:32.675Z,0.68
2023-04-13T11:30:07.444Z,0.80
2023-04-13T11:32:34.544Z,0.73
2023-04-13T11:35:10.981Z,0.80
2023-04-13T11:37:42.587Z,0.57
2023-04-13T11:40:14.408Z,0.63
2023-04-13T11:42:42.796Z,0.47
2023-04-13T11:45:10.393Z,1.63
2023-04-13T11:47:37.225Z,0.57
2023-04-13T11:50:04.417Z,1.13
2023-04-13T11:52:32.169Z,0.93
2023-04-13T11:55:07.434Z,0.40
2023-04-13T11:57:41.884Z,0.55
2023-04-13T12:00:23.921Z,1.20
2023-04-13T12:05:28.615Z,0.77
2023-04-13T12:07:56.845Z,1.52
2023-04-13T12:10:26.754Z,1.00
2023-04-13T12:13:16.012Z,0.40
2023-04-13T12:16:05.219Z,0.63
2023-04-13T12:18:43.346Z,0.50
2023-04-13T12:21:16.918Z,0.68
2023-04-13T12:24:05.759Z,0.88
2023-04-13T12:27:16.454Z,1.90
2023-04-13T12:29:22.189Z,0.73
2023-04-13T12:31:48.663Z,0.68
2023-04-13T12:34:15.291Z,0.90
2023-04-13T12:36:43.357Z,1.42
2023-04-13T12:39:09.836Z,0.90
2023-04-13T12:41:36.195Z,0.40
2023-04-13T12:44:02.563Z,0.63
2023-04-13T12:46:29.214Z,0.73
2023-04-13T12:48:55.677Z,0.30
2023-04-13T12:51:22.033Z,1.08
2023-04-13T12:53:48.490Z,0.88
2023-04-13T12:56:15.856Z,0.45
2023-04-13T12:58:42.308Z,0.45
2023-04-13T13:01:09.483Z,0.88
2023-04-13T13:03:36.984Z,0.50
2023-04-13T13:06:05.756Z,1.00
2023-04-13T13:08:34.948Z,1.02
2023-04-13T13:13:29.685Z,0.43
2023-04-13T13:15:56.078Z,0.50
2023-04-13T13:18:22.500Z,0.43
2023-04-13T13:20:49.312Z,0.45
2023-04-13T13:23:15.854Z,0.50
2023-04-13T13:25:54.306Z,0.45
2023-04-13T13:28:30.818Z,0.57
2023-04-13T13:30:57.226Z,0.70
2023-04-13T13:33:23.581Z,0.50
2023-04-13T13:35:49.995Z,0.30
2023-04-13T13:38:16.579Z,0.85
2023-04-13T13:40:42.937Z,0.85
2023-04-13T13:43:10.802Z,0.50
2023-04-13T13:45:37.213Z,0.50
2023-04-13T13:48:03.889Z,0.80
2023-04-13T13:50:30.464Z,0.55
2023-04-13T13:53:03.674Z,0.50
2023-04-13T13:55:31.721Z,0.50
2023-04-13T13:57:58.244Z,0.80
2023-04-13T14:00:25.640Z,0.88
2023-04-13T14:02:52.332Z,0.75
2023-04-13T14:05:18.884Z,0.85
2023-04-13T14:07:45.715Z,0.68
2023-04-13T14:10:13.303Z,0.65
2023-04-13T14:12:43.633Z,0.70
2023-04-13T14:15:11.350Z,0.88
2023-04-13T14:17:38.849Z,0.50
2023-04-13T14:20:11.918Z,0.70
2023-04-13T14:22:39.710Z,0.70
2023-04-13T14:25:07.425Z,0.60
2023-04-13T14:27:33.898Z,0.43
2023-04-13T14:30:01.783Z,1.13
2023-04-13T14:32:28.792Z,1.13
2023-04-13T14:34:56.542Z,0.35
2023-04-13T14:37:23.602Z,0.40
2023-04-13T14:39:51.295Z,0.70
2023-04-13T14:42:17.664Z,0.28
2023-04-13T14:44:44.099Z,0.50
2023-04-13T14:47:15.675Z,0.65
2023-04-13T14:49:45.172Z,0.50
2023-04-13T14:52:12.363Z,1.42
2023-04-13T14:54:38.954Z,0.73
2023-04-13T14:57:05.659Z,0.45
2023-04-13T14:59:32.093Z,0.60
2023-04-13T15:01:59.302Z,0.40
2023-04-13T15:04:25.752Z,0.68
2023-04-13T15:06:54.066Z,0.40
2023-04-13T15:09:20.843Z,0.47
2023-04-13T15:11:47.208Z,0.52
2023-04-13T15:14:13.573Z,0.70
2023-04-13T15:16:40.037Z,0.50
2023-04-13T15:19:06.562Z,0.55
2023-04-13T15:21:34.965Z,0.40
2023-04-13T15:24:01.362Z,0.55
2023-04-13T15:26:29.913Z,0.90
2023-04-13T15:28:56.265Z,0.30
2023-04-13T15:31:22.757Z,0.47
2023-04-13T15:33:49.170Z,0.47
2023-04-13T15:36:16.222Z,0.63
2023-04-13T15:38:43.140Z,0.73
2023-04-13T15:41:11.025Z,0.82
2023-04-13T15:43:37.869Z,0.70
2023-04-13T15:46:04.351Z,0.77
2023-04-13T15:48:30.750Z,0.50
2023-04-13T15:51:00.274Z,0.82
2023-04-13T15:53:33.053Z,0.80
2023-04-13T15:55:59.426Z,0.80
2023-04-13T15:58:25.815Z,0.98
2023-04-13T16:01:06.106Z,0.60
2023-04-13T16:03:33.914Z,1.08
2023-04-13T16:06:00.926Z,0.95
2023-04-13T16:08:27.307Z,1.30
2023-04-13T16:10:55.201Z,0.60
2023-04-13T16:13:22.463Z,0.75
2023-04-13T16:15:54.337Z,0.63
2023-04-13T16:18:28.539Z,0.60
2023-04-13T16:20:59.087Z,0.95
2023-04-13T16:23:25.765Z,0.70
2023-04-13T16:25:52.106Z,0.95
2023-04-13T16:28:19.674Z,0.65
2023-04-13T16:30:46.820Z,0.90
2023-04-13T16:33:13.204Z,1.13
2023-04-13T16:35:39.587Z,0.70
2023-04-13T16:38:06.093Z,0.70
2023-04-13T16:40:33.112Z,0.73
2023-04-13T16:43:00.005Z,1.25
2023-04-13T16:45:26.460Z,1.02
2023-04-13T16:47:53.524Z,0.90
2023-04-13T16:50:20.300Z,0.70
2023-04-13T16:52:46.889Z,1.00
2023-04-13T16:55:14.644Z,0.70
2023-04-13T16:57:42.760Z,0.65
2023-04-13T17:00:10.900Z,0.50
2023-04-13T17:02:39.726Z,1.02
2023-04-13T17:05:10.824Z,0.70
2023-04-13T17:07:42.054Z,0.98
2023-04-13T17:10:09.159Z,1.50
2023-04-13T17:12:36.260Z,1.25
2023-04-13T17:15:02.717Z,0.68
2023-04-13T17:17:29.216Z,0.60
2023-04-13T17:19:55.602Z,0.93
2023-04-13T17:22:22.566Z,0.80
2023-04-13T17:24:49.647Z,0.82
2023-04-13T17:27:16.415Z,0.60
2023-04-13T17:29:42.861Z,1.40
2023-04-13T17:32:09.462Z,0.63
2023-04-13T17:34:35.946Z,0.65
2023-04-13T17:37:02.279Z,0.80
2023-04-13T17:39:29.268Z,0.82
2023-04-13T17:41:56.804Z,1.05
2023-04-13T17:44:23.804Z,0.93
2023-04-13T17:46:51.465Z,1.00
2023-04-13T17:49:18.367Z,0.63
2023-04-13T17:51:47.268Z,0.90
2023-04-13T17:54:13.769Z,0.93
2023-04-13T17:56:40.461Z,0.60
2023-04-13T17:59:07.186Z,0.60
2023-04-13T18:01:33.836Z,0.70
2023-04-13T18:04:00.693Z,0.85
2023-04-13T18:06:27.382Z,0.80
2023-04-13T18:08:53.810Z,0.80
2023-04-13T18:11:20.372Z,0.88
2023-04-13T18:13:46.712Z,0.70
2023-04-13T18:16:14.455Z,0.60
2023-04-13T18:18:40.953Z,0.50
2023-04-13T18:21:08.130Z,0.80
2023-04-13T18:23:34.514Z,1.10
2023-04-13T18:26:01.624Z,0.52
2023-04-13T18:28:29.518Z,0.88
2023-04-13T18:31:00.392Z,0.47
2023-04-13T18:33:27.683Z,1.48
2023-04-13T18:35:54.301Z,0.85
2023-04-13T18:38:21.087Z,0.80
2023-04-13T18:40:49.090Z,0.60
2023-04-13T18:43:15.962Z,0.75
2023-04-13T18:45:42.705Z,0.60
2023-04-13T18:48:12.241Z,0.95
2023-04-13T18:50:38.753Z,0.93
2023-04-13T18:53:05.887Z,1.77
2023-04-13T18:55:32.379Z,0.90
2023-04-13T18:57:58.812Z,1.30
2023-04-13T19:00:25.279Z,1.02
2023-04-13T19:02:57.148Z,1.60
2023-04-13T19:05:23.993Z,1.60
2023-04-13T19:07:58.264Z,1.50
2023-04-13T19:10:26.051Z,2.00
2023-04-13T19:12:52.488Z,2.28
2023-04-13T19:15:19.067Z,1.77
2023-04-13T19:17:45.560Z,1.48
2023-04-13T19:20:13.040Z,1.45
2023-04-13T19:22:39.388Z,1.10
2023-04-13T19:25:07.371Z,1.10
2023-04-13T19:27:33.997Z,1.23
2023-04-13T19:30:00.541Z,0.98
2023-04-13T19:32:26.925Z,1.75
2023-04-13T19:34:53.304Z,1.10
2023-04-13T19:37:19.632Z,1.00
2023-04-13T19:39:46.272Z,1.75
2023-04-13T19:42:12.842Z,1.00
2023-04-13T19:44:39.248Z,0.98
2023-04-13T19:47:05.772Z,0.77
2023-04-13T19:49:33.136Z,0.32
2023-04-13T19:51:59.542Z,0.47
2023-04-13T19:54:25.931Z,0.65
2023-04-13T19:56:52.301Z,0.52
2023-04-13T19:59:18.734Z,0.55
2023-04-13T20:01:45.774Z,1.08
2023-04-13T20:04:12.569Z,0.90
2023-04-13T20:06:39.088Z,0.90
2023-04-13T20:09:13.467Z,0.73
2023-04-13T20:11:41.694Z,0.80
2023-04-13T20:14:09.312Z,1.02
2023-04-13T20:16:35.728Z,0.90
2023-04-13T20:19:02.316Z,1.05
2023-04-13T20:21:30.965Z,0.57
2023-04-13T20:23:58.074Z,0.60
2023-04-13T20:26:27.896Z,0.43
2023-04-13T20:28:55.272Z,0.52
2023-04-13T20:31:21.793Z,0.65
2023-04-13T20:33:48.881Z,0.50
2023-04-13T20:36:21.108Z,0.70
2023-04-13T20:38:48.208Z,0.60
2023-04-13T20:41:14.615Z,0.73
2023-04-13T20:43:42.014Z,0.63
2023-04-13T20:46:09.811Z,0.57
2023-04-13T20:51:09.016Z,0.68
2023-04-13T20:53:37.593Z,1.85
2023-04-13T20:56:05.407Z,1.15
2023-04-13T20:58:35.164Z,1.05
2023-04-13T21:01:01.726Z,1.20
2023-04-13T21:03:30.699Z,1.88
2023-04-13T21:05:58.495Z,1.42
2023-04-13T21:08:25.715Z,1.05
2023-04-13T21:10:52.107Z,0.80
2023-04-13T21:13:18.750Z,1.05
2023-04-13T21:15:45.249Z,0.82
2023-04-13T21:18:11.674Z,1.05
2023-04-13T21:20:40.586Z,0.90
2023-04-13T21:23:06.936Z,0.82
2023-04-13T21:25:33.319Z,1.60
2023-04-13T21:27:59.719Z,0.98
2023-04-13T21:30:26.081Z,0.98
2023-04-13T21:32:52.466Z,1.40
2023-04-13T21:35:19.422Z,1.80
2023-04-13T21:37:45.817Z,1.10
2023-04-13T21:40:12.272Z,1.02
2023-04-13T21:42:40.853Z,1.08
2023-04-13T21:45:07.855Z,1.80
2023-04-13T21:47:34.223Z,1.85
2023-04-13T21:50:00.629Z,1.33
2023-04-13T21:52:28.568Z,1.30
2023-04-13T21:54:55.466Z,1.10
2023-04-13T21:57:21.850Z,1.00
2023-04-13T21:59:48.254Z,1.10
2023-04-13T22:02:14.649Z,1.50
2023-04-13T22:04:41.065Z,1.15
2023-04-13T22:07:07.435Z,1.85
2023-04-13T22:09:33.862Z,1.48
2023-04-13T22:12:00.738Z,1.10
2023-04-13T22:14:27.139Z,1.20
2023-04-13T22:16:53.933Z,1.30
2023-04-13T22:19:20.403Z,1.40
2023-04-13T22:21:46.888Z,1.20
2023-04-13T22:24:13.525Z,1.27
2023-04-13T22:26:39.952Z,1.30
2023-04-13T22:29:06.988Z,1.50
2023-04-13T22:31:33.415Z,1.30
2023-04-13T22:33:59.912Z,1.15
2023-04-13T22:36:26.991Z,1.10
2023-04-13T22:38:54.604Z,1.08
2023-04-13T22:41:21.078Z,1.30
2023-04-13T22:43:47.442Z,1.45
2023-04-13T22:46:13.955Z,1.13
2023-04-13T22:48:40.440Z,1.20
2023-04-13T22:51:07.076Z,1.13
2023-04-13T22:53:33.459Z,1.20
2023-04-13T22:56:00.870Z,1.55
2023-04-13T22:58:27.918Z,1.00
2023-04-13T23:00:54.469Z,1.08
2023-04-13T23:03:21.270Z,1.00
2023-04-13T23:05:47.908Z,1.38
2023-04-13T23:08:14.291Z,0.82
2023-04-13T23:10:40.624Z,1.10
2023-04-13T23:13:07.199Z,0.85
2023-04-13T23:15:33.535Z,1.05
2023-04-13T23:18:02.425Z,0.93
2023-04-13T23:20:28.989Z,1.20
2023-04-13T23:22:55.513Z,2.25
2023-04-13T23:25:21.947Z,0.95
2023-04-13T23:27:48.305Z,0.80
2023-04-13T23:30:14.708Z,0.95
2023-04-13T23:32:41.232Z,1.42
2023-04-13T23:35:08.428Z,1.10
2023-04-13T23:37:34.850Z,1.15
2023-04-13T23:40:01.350Z,1.20
2023-04-13T23:42:27.987Z,1.23
2023-04-13T23:44:54.395Z,0.90
2023-04-13T23:47:21.148Z,1.08
2023-04-13T23:49:47.760Z,1.80
2023-04-13T23:52:14.092Z,1.10
2023-04-13T23:54:40.587Z,1.20
2023-04-13T23:57:07.086Z,1.20
2023-04-13T23:59:33.475Z,1.35
